Time;durP1;ratioP1;P1;durP2;ratioP2;P2;SDS_P1;SDS_P2;PMS_P1;PMS_P2;Temp;Humidity;BMP_temperature;BMP_pressure;BME280_temperature;BME280_humidity;BME280_pressure;Samples;Min_cycle;Max_cycle;Signal;HPM_P1;HPM_P2
2021/12/21 00:00:47;;;;;;;1.77;1.50;;;-1.30;99.90;-2.30;100803;;;;565719;250;24029;-74
2021/12/21 00:03:14;;;;;;;1.70;1.60;;;-1.30;99.90;-2.30;100798;;;;566304;250;24037;-74
2021/12/21 00:05:42;;;;;;;1.50;1.40;;;-1.30;99.90;-2.30;100799;;;;566226;250;24009;-74
2021/12/21 00:08:12;;;;;;;0.70;0.70;;;-1.30;99.90;-2.30;100813;;;;565872;250;24018;-74
2021/12/21 00:10:42;;;;;;;0.90;0.90;;;-1.20;99.90;-2.30;100807;;;;561874;246;24116;-75
2021/12/21 00:13:40;;;;;;;1.43;1.33;;;-1.20;99.90;-2.20;100818;;;;551674;256;24205;-74
2021/12/21 00:18:37;;;;;;;1.93;1.60;;;-1.20;99.90;-2.20;100819;;;;557192;255;24222;-75
2021/12/21 00:23:33;;;;;;;1.17;1.03;;;-1.10;99.90;-2.20;100818;;;;559242;253;24185;-74
2021/12/21 00:25:59;;;;;;;1.10;1.00;;;-1.20;99.90;-2.20;100817;;;;562524;251;24133;-73
2021/12/21 00:28:29;;;;;;;0.83;0.77;;;-1.20;99.90;-2.20;100817;;;;561550;252;24166;-73
2021/12/21 00:30:55;;;;;;;0.60;0.60;;;-1.20;99.90;-2.20;100829;;;;561219;252;24176;-75
2021/12/21 00:33:23;;;;;;;0.87;0.67;;;-1.20;99.90;-2.20;100826;;;;567663;253;24016;-74
2021/12/21 00:35:51;;;;;;;1.27;0.50;;;-1.20;99.90;-2.30;100835;;;;559400;255;24124;-75
2021/12/21 00:38:19;;;;;;;0.50;0.50;;;-1.30;99.90;-2.30;100839;;;;567673;253;24022;-74
2021/12/21 00:40:47;;;;;;;1.00;0.90;;;-1.30;99.90;-2.20;100854;;;;559030;255;24160;-74
2021/12/21 00:43:19;;;;;;;1.00;0.90;;;-1.20;99.90;-2.20;100853;;;;567270;252;24136;-74
2021/12/21 00:45:43;;;;;;;0.73;0.73;;;-1.20;99.90;-2.10;100849;;;;559532;252;24118;-74
2021/12/21 00:48:11;;;;;;;0.77;0.77;;;-1.20;99.90;-2.10;100861;;;;572146;251;24072;-74
2021/12/21 00:50:40;;;;;;;1.10;1.07;;;-1.10;99.90;-2.10;100879;;;;571795;251;24109;-74
2021/12/21 00:53:08;;;;;;;1.00;0.80;;;-1.10;99.90;-2.00;100856;;;;568495;252;24165;-72
2021/12/21 00:55:35;;;;;;;0.70;0.70;;;-1.00;99.90;-2.10;100850;;;;571841;251;24104;-73
2021/12/21 00:58:03;;;;;;;0.52;0.52;;;-1.00;99.90;-2.10;100878;;;;566705;251;35165;-73
2021/12/21 01:00:31;;;;;;;0.30;0.30;;;-1.10;99.90;-2.10;100873;;;;568684;252;24110;-73
2021/12/21 01:03:05;;;;;;;0.43;0.43;;;-1.10;99.90;-2.10;100879;;;;564274;250;24129;-74
2021/12/21 01:05:45;;;;;;;0.30;0.30;;;-1.10;99.90;-2.10;100880;;;;572796;250;24133;-74
2021/12/21 01:07:58;;;;;;;0.50;0.50;;;-1.10;99.90;-2.10;100881;;;;569365;248;24125;-74
2021/12/21 01:10:50;;;;;;;0.83;0.83;;;-1.00;99.90;-2.10;100885;;;;572479;250;24090;-74
2021/12/21 01:13:14;;;;;;;1.60;1.43;;;-1.10;99.90;-2.10;100887;;;;572332;250;24125;-73
2021/12/21 01:15:47;;;;;;;1.77;1.40;;;-1.10;99.90;-2.10;100888;;;;558759;252;24095;-73
2021/12/21 01:18:07;;;;;;;1.10;1.00;;;-1.10;99.90;-2.20;100879;;;;572346;250;24110;-73
2021/12/21 01:20:33;;;;;;;1.57;1.13;;;-1.10;99.90;-2.20;100877;;;;568921;252;25218;-72
2021/12/21 01:28:13;;;;;;;0.80;0.80;;;-1.10;99.90;-2.20;100875;;;;538123;261;24167;-74
2021/12/21 01:30:43;;;;;;;1.00;1.00;;;-1.10;99.90;-2.20;100872;;;;559350;253;24166;-74
2021/12/21 01:35:37;;;;;;;0.53;0.53;;;-1.10;99.90;-2.20;100884;;;;545598;261;24157;-72
2021/12/21 01:40:50;;;;;;;0.70;0.70;;;-1.10;99.90;-2.20;100884;;;;548921;261;24167;-72
2021/12/21 01:44:03;;;;;;;0.47;0.47;;;-1.10;99.90;-2.20;100889;;;;538483;262;24193;-72
2021/12/21 01:51:24;;;;;;;0.43;0.43;;;-1.10;99.90;-2.20;100881;;;;555359;255;24080;-74
2021/12/21 01:53:50;;;;;;;0.60;0.60;;;-1.00;99.90;-2.20;100879;;;;555381;255;24227;-74
2021/12/21 01:56:18;;;;;;;0.90;0.90;;;-1.00;99.90;-2.20;100874;;;;555430;255;25069;-74
2021/12/21 01:58:46;;;;;;;0.50;0.50;;;-1.00;99.90;-2.10;100875;;;;555330;255;24002;-73
2021/12/21 02:01:14;;;;;;;0.50;0.50;;;-1.00;99.90;-2.10;100889;;;;555415;255;24024;-73
2021/12/21 02:03:47;;;;;;;0.20;0.20;;;-1.00;99.90;-2.10;100881;;;;554510;255;24023;-72
2021/12/21 02:06:10;;;;;;;0.80;0.80;;;-1.00;99.90;-2.10;100878;;;;555271;255;24069;-73
2021/12/21 02:08:38;;;;;;;0.40;0.40;;;-1.00;99.90;-2.10;100866;;;;563229;252;24014;-73
2021/12/21 02:11:06;;;;;;;0.60;0.60;;;-1.00;99.90;-2.10;100866;;;;563652;252;24105;-72
2021/12/21 02:13:36;;;;;;;0.33;0.33;;;-1.00;99.90;-2.10;100878;;;;564012;253;24005;-74
2021/12/21 02:16:03;;;;;;;0.40;0.37;;;-1.00;99.90;-2.10;100874;;;;552344;256;24130;-73
2021/12/21 02:18:38;;;;;;;0.60;0.60;;;-1.00;99.90;-2.10;100871;;;;539737;262;24258;-74
2021/12/21 02:21:07;;;;;;;0.43;0.43;;;-1.00;99.90;-2.10;100869;;;;541670;261;24183;-74
2021/12/21 02:23:37;;;;;;;0.40;0.40;;;-1.00;99.90;-2.10;100869;;;;568537;248;24167;-73
2021/12/21 02:29:08;;;;;;;0.40;0.40;;;-1.00;99.90;-2.10;100871;;;;539045;262;24167;-74
2021/12/21 02:31:16;;;;;;;0.20;0.20;;;-1.00;99.90;-2.10;100874;;;;545697;260;24154;-73
2021/12/21 02:33:45;;;;;;;0.50;0.50;;;-1.00;99.90;-2.10;100881;;;;541841;259;24173;-73
2021/12/21 02:36:11;;;;;;;0.40;0.40;;;-1.00;99.90;-2.10;100881;;;;551134;256;24182;-73
2021/12/21 02:38:39;;;;;;;0.50;0.50;;;-1.00;99.90;-2.10;100874;;;;538465;262;24148;-73
2021/12/21 02:41:08;;;;;;;0.43;0.43;;;-1.00;99.90;-2.10;100883;;;;545534;261;24185;-73
2021/12/21 02:43:38;;;;;;;0.30;0.30;;;-1.00;99.90;-2.10;100882;;;;541712;261;24160;-73
2021/12/21 02:46:03;;;;;;;0.90;0.53;;;-1.00;99.90;-2.10;100884;;;;569058;248;24149;-73
2021/12/21 02:48:31;;;;;;;0.40;0.40;;;-1.00;99.90;-2.10;100885;;;;539522;262;24202;-73
2021/12/21 02:51:02;;;;;;;0.73;0.73;;;-1.00;99.90;-2.10;100897;;;;553270;252;24015;-73
2021/12/21 02:53:27;;;;;;;0.33;0.33;;;-1.00;99.90;-2.10;100904;;;;568547;249;24079;-72
2021/12/21 02:55:55;;;;;;;0.40;0.40;;;-1.00;99.90;-2.10;100902;;;;568728;250;24174;-73
2021/12/21 02:58:23;;;;;;;0.50;0.50;;;-1.00;99.90;-2.10;100893;;;;560322;252;24066;-73
2021/12/21 03:00:53;;;;;;;0.40;0.40;;;-1.00;99.90;-2.10;100900;;;;568716;250;24182;-73
2021/12/21 03:03:24;;;;;;;0.60;0.60;;;-1.00;99.90;-2.10;100907;;;;568639;252;24124;-73
2021/12/21 03:05:52;;;;;;;0.40;0.40;;;-1.00;99.90;-2.10;100915;;;;559961;252;24063;-73
2021/12/21 03:08:21;;;;;;;0.20;0.20;;;-1.00;99.90;-2.10;100912;;;;568173;248;24079;-73
2021/12/21 03:11:02;;;;;;;0.30;0.30;;;-1.00;99.90;-2.10;100918;;;;568308;246;24085;-73
2021/12/21 03:15:57;;;;;;;0.30;0.30;;;-1.00;99.90;-2.10;100914;;;;568250;252;24080;-73
2021/12/21 03:18:25;;;;;;;0.50;0.50;;;-1.00;99.90;-2.10;100911;;;;568470;250;24062;-74
2021/12/21 03:20:53;;;;;;;0.97;0.97;;;-1.00;99.90;-2.10;100912;;;;568337;250;24075;-74
2021/12/21 03:23:21;;;;;;;2.03;1.43;;;-1.00;99.90;-2.10;100919;;;;568818;250;24123;-74
2021/12/21 03:25:49;;;;;;;1.40;1.30;;;-1.00;99.90;-2.10;100908;;;;569127;250;24155;-73
2021/12/21 03:28:17;;;;;;;1.17;1.17;;;-1.00;99.90;-2.20;100909;;;;566243;249;24018;-74
2021/12/21 03:30:45;;;;;;;2.03;1.80;;;-1.00;99.90;-2.20;100913;;;;564268;252;24006;-72
2021/12/21 03:33:13;;;;;;;1.40;1.40;;;-1.10;99.90;-2.20;100920;;;;564038;252;24054;-73
2021/12/21 03:35:41;;;;;;;1.03;1.03;;;-1.10;99.90;-2.20;100916;;;;555729;254;24006;-73
2021/12/21 03:38:09;;;;;;;1.20;1.20;;;-1.10;99.90;-2.30;100909;;;;563787;252;24042;-72
2021/12/21 03:40:38;;;;;;;0.83;0.83;;;-1.20;99.90;-2.30;100911;;;;555423;254;24009;-73
2021/12/21 03:43:06;;;;;;;0.53;0.53;;;-1.20;99.90;-2.30;100904;;;;564047;252;24080;-73
2021/12/21 03:45:39;;;;;;;0.97;0.97;;;-1.20;99.90;-2.30;100908;;;;563913;252;24026;-73
2021/12/21 03:48:05;;;;;;;1.73;1.63;;;-1.20;99.90;-2.40;100907;;;;555381;254;24083;-73
2021/12/21 03:50:30;;;;;;;1.83;1.73;;;-1.20;99.90;-2.40;100902;;;;554886;254;24026;-73
2021/12/21 03:52:57;;;;;;;2.73;1.60;;;-1.20;99.90;-2.40;100899;;;;563868;252;24026;-73
2021/12/21 03:55:25;;;;;;;1.53;1.43;;;-1.30;99.90;-2.50;100893;;;;563878;252;24021;-73
2021/12/21 03:57:53;;;;;;;0.87;0.87;;;-1.30;99.90;-2.50;100903;;;;563872;253;24022;-73
2021/12/21 04:00:23;;;;;;;1.87;1.23;;;-1.30;99.90;-2.50;100903;;;;555704;254;24087;-73
2021/12/21 04:02:52;;;;;;;1.33;1.23;;;-1.30;99.90;-2.50;100899;;;;563605;250;24011;-73
2021/12/21 04:05:18;;;;;;;1.40;1.07;;;-1.40;99.90;-2.60;100899;;;;555319;255;24023;-73
2021/12/21 04:07:46;;;;;;;0.80;0.80;;;-1.40;99.90;-2.60;100895;;;;563359;252;24035;-74
2021/12/21 04:10:17;;;;;;;0.70;0.60;;;-1.40;99.90;-2.60;100903;;;;563274;252;24050;-73
2021/12/21 04:12:42;;;;;;;1.13;1.13;;;-1.40;99.90;-2.60;100904;;;;554447;255;24018;-72
2021/12/21 04:15:13;;;;;;;0.93;0.93;;;-1.50;99.90;-2.60;100903;;;;563226;253;24029;-74
2021/12/21 04:17:37;;;;;;;1.90;1.27;;;-1.50;99.90;-2.60;100902;;;;563049;251;24023;-74
2021/12/21 04:20:09;;;;;;;1.13;1.13;;;-1.50;99.90;-2.70;100912;;;;563226;252;24075;-74
2021/12/21 04:22:34;;;;;;;1.10;1.10;;;-1.50;99.90;-2.70;100901;;;;563243;255;24018;-74
2021/12/21 04:25:05;;;;;;;0.90;0.87;;;-1.60;99.90;-2.70;100902;;;;563355;252;24011;-74
2021/12/21 04:27:31;;;;;;;1.23;1.23;;;-1.60;99.90;-2.80;100897;;;;554794;255;24054;-75
2021/12/21 04:29:59;;;;;;;1.10;1.00;;;-1.60;99.90;-2.80;100904;;;;563369;252;24018;-75
2021/12/21 04:32:27;;;;;;;0.40;0.40;;;-1.70;99.90;-2.90;100898;;;;563249;252;24006;-75
2021/12/21 04:34:56;;;;;;;0.50;0.50;;;-1.80;99.90;-2.90;100902;;;;563365;253;24054;-72
2021/12/21 04:37:25;;;;;;;0.57;0.57;;;-1.80;99.90;-3.00;100903;;;;555407;254;24010;-74
2021/12/21 04:40:04;;;;;;;0.43;0.43;;;-1.80;99.90;-3.00;100899;;;;564246;254;24022;-73
2021/12/21 04:42:26;;;;;;;0.87;0.87;;;-1.90;99.90;-3.00;100904;;;;552988;254;24019;-75
2021/12/21 04:44:54;;;;;;;0.40;0.40;;;-1.90;99.90;-3.10;100899;;;;564346;252;24080;-75
2021/12/21 04:47:22;;;;;;;0.80;0.80;;;-1.90;99.90;-3.10;100900;;;;564153;252;24034;-75
2021/12/21 04:49:52;;;;;;;0.13;0.13;;;-1.90;99.90;-3.10;100903;;;;564122;253;24020;-75
2021/12/21 04:52:18;;;;;;;0.40;0.40;;;-1.90;99.90;-3.00;100907;;;;564060;254;25069;-74
2021/12/21 04:54:46;;;;;;;0.60;0.60;;;-1.90;99.90;-3.00;100905;;;;564086;252;24062;-75
2021/12/21 04:57:14;;;;;;;0.30;0.30;;;-1.80;99.90;-3.00;100912;;;;563907;252;24043;-75
2021/12/21 04:59:43;;;;;;;0.40;0.40;;;-1.80;99.90;-3.00;100909;;;;563913;252;24038;-75
2021/12/21 05:02:11;;;;;;;0.40;0.40;;;-1.80;99.90;-3.00;100914;;;;563943;252;24018;-74
2021/12/21 05:04:39;;;;;;;0.40;0.40;;;-1.80;99.90;-3.00;100917;;;;563874;253;24062;-74
2021/12/21 05:07:07;;;;;;;1.07;0.77;;;-1.80;99.90;-2.90;100910;;;;555573;254;24041;-74
2021/12/21 05:09:43;;;;;;;0.73;0.70;;;-1.70;99.90;-2.90;100910;;;;555420;254;24057;-74
2021/12/21 05:12:11;;;;;;;1.10;1.10;;;-1.70;99.90;-2.90;100905;;;;563526;253;24071;-74
2021/12/21 05:14:37;;;;;;;0.67;0.67;;;-1.70;99.90;-2.90;100891;;;;563560;250;24105;-73
2021/12/21 05:17:06;;;;;;;0.73;0.73;;;-1.70;99.90;-2.90;100900;;;;555059;255;24059;-73
2021/12/21 05:19:35;;;;;;;0.57;0.57;;;-1.70;99.90;-3.00;100889;;;;563243;253;24065;-73
2021/12/21 05:22:03;;;;;;;1.23;1.10;;;-1.80;99.90;-3.00;100889;;;;563325;252;24029;-73
2021/12/21 05:24:31;;;;;;;0.63;0.60;;;-1.80;99.90;-3.00;100889;;;;554621;255;24010;-74
2021/12/21 05:26:59;;;;;;;0.80;0.80;;;-1.90;99.90;-3.10;100888;;;;555335;250;24022;-73
2021/12/21 05:29:30;;;;;;;0.50;0.50;;;-1.90;99.90;-3.20;100892;;;;564392;250;23989;-74
2021/12/21 05:31:57;;;;;;;0.50;0.50;;;-2.00;99.90;-3.20;100895;;;;564601;250;24051;-74
2021/12/21 05:34:24;;;;;;;1.20;1.20;;;-2.00;99.90;-3.20;100882;;;;573947;247;24074;-73
2021/12/21 05:36:52;;;;;;;0.60;0.60;;;-2.00;99.90;-3.20;100890;;;;573900;248;24029;-74
2021/12/21 05:39:24;;;;;;;0.73;0.73;;;-2.00;99.90;-3.10;100892;;;;565458;250;24044;-73
2021/12/21 05:41:53;;;;;;;0.60;0.60;;;-2.00;99.90;-3.10;100892;;;;573894;246;23981;-73
2021/12/21 05:44:19;;;;;;;0.60;0.60;;;-1.90;99.90;-3.00;100907;;;;565475;250;24063;-72
2021/12/21 05:46:47;;;;;;;0.40;0.40;;;-1.90;99.90;-3.00;100900;;;;565828;250;24056;-73
2021/12/21 05:49:15;;;;;;;0.80;0.80;;;-1.80;99.90;-3.00;100912;;;;566639;249;24044;-73
2021/12/21 05:51:46;;;;;;;0.90;0.90;;;-1.80;99.90;-3.00;100913;;;;566473;249;23988;-73
2021/12/21 05:54:10;;;;;;;0.83;0.83;;;-1.80;99.90;-2.90;100911;;;;565978;249;24005;-74
2021/12/21 05:56:38;;;;;;;1.20;1.10;;;-1.70;99.90;-2.90;100909;;;;575117;248;23997;-73
2021/12/21 05:59:06;;;;;;;0.43;0.43;;;-1.70;99.90;-2.90;100892;;;;574903;248;23989;-73
2021/12/21 06:01:34;;;;;;;0.67;0.67;;;-1.70;99.90;-3.00;100888;;;;574875;248;23990;-73
2021/12/21 06:04:02;;;;;;;1.27;1.17;;;-1.70;99.90;-3.00;100887;;;;570520;250;24119;-74
2021/12/21 06:06:31;;;;;;;0.53;0.53;;;-1.80;99.90;-3.10;100883;;;;559646;252;25065;-74
2021/12/21 06:09:00;;;;;;;0.63;0.43;;;-1.80;99.90;-3.20;100878;;;;565921;250;24007;-74
2021/12/21 06:11:26;;;;;;;0.50;0.50;;;-1.90;99.90;-3.30;100883;;;;565858;250;24032;-74
2021/12/21 06:27:18;;;;;;;2.00;0.70;;;-2.40;99.90;-3.70;100881;;;;561521;252;24119;-74
2021/12/21 06:29:46;;;;;;;1.07;1.07;;;-2.40;99.90;-3.80;100891;;;;567631;253;24045;-74
2021/12/21 06:32:14;;;;;;;2.33;2.13;;;-2.50;99.90;-3.80;100892;;;;557175;256;24158;-74
2021/12/21 06:34:42;;;;;;;1.80;1.67;;;-2.60;99.90;-3.90;100884;;;;567310;251;24095;-74
2021/12/21 06:37:11;;;;;;;1.57;1.30;;;-2.70;99.90;-3.90;100883;;;;550867;256;24167;-75
2021/12/21 06:39:39;;;;;;;1.40;1.30;;;-2.70;99.90;-3.90;100895;;;;559036;253;24022;-74
2021/12/21 06:42:07;;;;;;;1.43;1.20;;;-2.70;99.90;-3.90;100882;;;;550860;256;24154;-73
2021/12/21 06:44:37;;;;;;;1.57;1.47;;;-2.70;99.90;-3.90;100882;;;;558510;253;24032;-74
2021/12/21 06:52:36;;;;;;;1.80;1.70;;;-2.60;99.90;-3.70;100888;;;;557370;255;24213;-74
2021/12/21 06:55:04;;;;;;;2.00;1.80;;;-2.50;99.90;-3.60;100883;;;;559249;253;23999;-75
2021/12/21 06:57:32;;;;;;;1.70;1.60;;;-2.50;99.90;-3.60;100877;;;;562774;250;23993;-74
2021/12/21 07:00:00;;;;;;;2.37;2.17;;;-2.50;99.90;-3.60;100881;;;;574791;248;24018;-74
2021/12/21 07:02:27;;;;;;;1.60;1.50;;;-2.50;99.90;-3.70;100881;;;;562750;251;24113;-74
2021/12/21 07:04:56;;;;;;;2.10;1.90;;;-2.50;99.90;-3.70;100870;;;;568563;252;24016;-72
2021/12/21 07:07:24;;;;;;;1.73;1.63;;;-2.50;99.90;-3.70;100874;;;;557942;255;24157;-74
2021/12/21 07:09:59;;;;;;;2.13;1.50;;;-2.50;99.90;-3.70;100876;;;;559440;253;24028;-73
2021/12/21 07:18:07;;;;;;;2.93;1.50;;;-2.60;99.90;-3.80;100880;;;;565799;250;24018;-73
2021/12/21 07:20:18;;;;;;;1.90;1.80;;;-2.60;99.90;-3.80;100873;;;;574083;250;24059;-74
2021/12/21 07:22:46;;;;;;;1.63;1.53;;;-2.70;99.90;-3.70;100879;;;;574175;248;23996;-74
2021/12/21 07:25:14;;;;;;;2.13;1.87;;;-2.60;99.90;-3.70;100878;;;;574097;248;24016;-74
2021/12/21 07:27:41;;;;;;;1.60;1.50;;;-2.60;99.90;-3.70;100876;;;;565694;250;23992;-74
2021/12/21 07:30:13;;;;;;;1.70;1.20;;;-2.50;99.90;-3.60;100866;;;;560628;249;34279;-73
2021/12/21 07:32:38;;;;;;;1.03;0.90;;;-2.50;99.90;-3.60;100873;;;;565231;250;24044;-74
2021/12/21 07:35:06;;;;;;;2.87;1.70;;;-2.40;99.90;-3.50;100879;;;;565596;250;24034;-74
2021/12/21 07:37:35;;;;;;;1.90;1.70;;;-2.30;99.90;-3.40;100873;;;;563496;253;24038;-74
2021/12/21 07:40:02;;;;;;;3.80;1.90;;;-2.20;99.90;-3.40;100888;;;;563781;251;24055;-74
2021/12/21 07:42:29;;;;;;;2.67;2.43;;;-2.20;99.90;-3.30;100889;;;;564018;253;24012;-74
2021/12/21 07:44:57;;;;;;;2.60;2.40;;;-2.20;99.90;-3.30;100883;;;;564222;253;24151;-74
2021/12/21 07:47:25;;;;;;;3.23;2.67;;;-2.10;99.90;-3.20;100900;;;;555534;254;24050;-75
2021/12/21 07:49:53;;;;;;;2.67;2.47;;;-2.10;99.90;-3.20;100892;;;;555682;254;24040;-73
2021/12/21 07:52:24;;;;;;;2.37;2.07;;;-2.00;99.90;-3.20;100892;;;;563823;253;24014;-73
2021/12/21 07:54:49;;;;;;;3.00;2.70;;;-2.00;99.90;-3.10;100893;;;;555331;254;24082;-74
2021/12/21 07:57:17;;;;;;;5.13;3.40;;;-1.90;99.90;-3.00;100898;;;;563849;253;24080;-74
2021/12/21 07:59:49;;;;;;;4.40;3.77;;;-1.80;99.90;-3.00;100904;;;;563821;253;24019;-74
2021/12/21 08:02:14;;;;;;;4.90;3.60;;;-1.80;99.90;-3.00;100905;;;;555654;254;24034;-73
2021/12/21 08:04:43;;;;;;;3.40;2.93;;;-1.80;99.90;-3.00;100902;;;;563734;253;24007;-74
2021/12/21 08:07:17;;;;;;;4.43;3.73;;;-1.80;99.90;-2.90;100906;;;;563890;250;24041;-75
2021/12/21 08:09:45;;;;;;;4.40;3.33;;;-1.70;99.90;-2.90;100901;;;;555326;254;24058;-74
2021/12/21 08:12:18;;;;;;;8.43;4.70;;;-1.70;99.90;-2.90;100901;;;;564218;253;24033;-75
2021/12/21 08:14:48;;;;;;;6.33;4.70;;;-1.70;99.90;-2.90;100904;;;;564946;252;24044;-73
2021/12/21 08:17:19;;;;;;;4.37;2.63;;;-1.70;99.90;-2.90;100887;;;;556252;254;24049;-75
2021/12/21 08:19:44;;;;;;;4.97;3.53;;;-1.80;99.90;-2.90;100902;;;;551916;256;24142;-74
2021/12/21 08:22:12;;;;;;;4.63;4.23;;;-1.80;99.90;-2.90;100893;;;;549861;256;24226;-74
2021/12/21 08:24:40;;;;;;;3.67;3.27;;;-1.80;99.90;-2.90;100898;;;;560104;253;24174;-73
2021/12/21 08:27:08;;;;;;;8.77;5.47;;;-1.80;99.90;-2.90;100895;;;;551445;256;24176;-73
2021/12/21 08:29:36;;;;;;;4.87;3.90;;;-1.80;99.90;-2.80;100894;;;;551846;256;24129;-74
2021/12/21 08:32:04;;;;;;;5.80;3.10;;;-1.70;99.90;-2.80;100894;;;;559823;256;24131;-75
2021/12/21 08:34:32;;;;;;;2.87;2.57;;;-1.70;99.90;-2.70;100895;;;;559748;256;24126;-75
2021/12/21 08:37:00;;;;;;;3.40;3.10;;;-1.60;99.90;-2.60;100893;;;;559765;254;26628;-74
2021/12/21 08:39:36;;;;;;;5.63;4.20;;;-1.50;99.90;-2.50;100889;;;;551229;256;24196;-73
2021/12/21 08:41:58;;;;;;;4.00;3.10;;;-1.50;99.90;-2.40;100893;;;;559922;256;24133;-74
2021/12/21 08:44:30;;;;;;;3.50;3.13;;;-1.30;99.90;-2.30;100885;;;;559719;252;24144;-75
2021/12/21 08:46:57;;;;;;;3.97;3.20;;;-1.20;99.90;-2.30;100890;;;;551610;256;24285;-76
2021/12/21 08:49:23;;;;;;;5.10;3.83;;;-1.20;99.90;-2.30;100899;;;;559924;253;24147;-76
2021/12/21 08:51:51;;;;;;;4.17;2.90;;;-1.20;99.90;-2.30;100903;;;;559924;254;25177;-76
2021/12/21 08:54:19;;;;;;;5.53;4.03;;;-1.20;99.90;-2.20;100913;;;;563744;248;24128;-75
2021/12/21 08:56:48;;;;;;;6.27;4.00;;;-1.20;99.90;-2.20;100900;;;;567923;248;24103;-76
2021/12/21 08:59:15;;;;;;;3.87;3.27;;;-1.10;99.90;-2.10;100911;;;;567907;248;25157;-75
2021/12/21 09:01:43;;;;;;;3.97;3.50;;;-1.00;99.90;-2.10;100905;;;;559536;253;24123;-75
2021/12/21 09:04:11;;;;;;;4.23;3.07;;;-1.00;99.90;-2.10;100911;;;;557714;253;24123;-75
2021/12/21 09:06:43;;;;;;;6.33;3.77;;;-1.00;99.90;-2.10;100907;;;;567937;251;24136;-74
2021/12/21 09:09:08;;;;;;;4.97;3.30;;;-1.00;99.90;-2.00;100913;;;;559019;253;24146;-75
2021/12/21 09:11:37;;;;;;;5.13;3.40;;;-1.00;99.90;-1.90;100902;;;;567695;251;24123;-73
2021/12/21 09:14:07;;;;;;;3.30;2.17;;;-0.90;99.90;-1.80;100921;;;;559202;253;24097;-76
2021/12/21 09:16:32;;;;;;;5.30;3.43;;;-0.80;99.90;-1.80;100919;;;;559552;251;24096;-77
2021/12/21 09:19:02;;;;;;;1.77;1.67;;;-0.70;99.90;-1.70;100919;;;;567585;251;24147;-76
2021/12/21 09:21:28;;;;;;;1.67;1.50;;;-0.60;99.90;-1.50;100926;;;;567558;251;24113;-75
2021/12/21 09:23:56;;;;;;;1.40;1.30;;;-0.40;99.90;-1.30;100933;;;;560306;251;24102;-75
2021/12/21 09:26:24;;;;;;;3.33;2.10;;;-0.20;99.90;-1.20;100927;;;;568961;251;24182;-76
2021/12/21 09:28:52;;;;;;;2.93;1.33;;;0.00;99.90;-1.10;100927;;;;568862;251;24126;-75
2021/12/21 09:31:24;;;;;;;2.50;1.20;;;0.00;99.90;-1.20;100934;;;;560268;252;25133;-75
2021/12/21 09:33:51;;;;;;;1.23;1.10;;;0.00;99.90;-1.20;100926;;;;562667;252;24132;-74
2021/12/21 09:36:16;;;;;;;3.33;2.10;;;0.00;99.90;-1.10;100918;;;;557898;252;24121;-76
2021/12/21 09:38:44;;;;;;;0.67;0.67;;;0.00;99.90;-1.10;100929;;;;559681;252;24172;-73
2021/12/21 09:41:12;;;;;;;4.70;3.15;;;0.00;99.90;-1.10;100930;;;;555122;253;35359;-76
2021/12/21 09:43:40;;;;;;;3.97;2.27;;;0.10;99.90;-1.00;100921;;;;559739;253;24168;-75
2021/12/21 09:46:08;;;;;;;4.43;2.30;;;0.10;99.90;-1.00;100918;;;;559644;253;24114;-74
2021/12/21 09:48:36;;;;;;;1.70;1.60;;;0.20;99.90;-0.90;100933;;;;551391;256;24143;-74
2021/12/21 09:51:03;;;;;;;3.50;2.03;;;0.20;99.90;-0.90;100929;;;;539848;261;24179;-73
2021/12/21 09:53:31;;;;;;;4.63;1.60;;;0.30;99.90;-0.90;100933;;;;541527;261;24170;-75
2021/12/21 09:56:02;;;;;;;3.50;2.23;;;0.30;99.90;-0.90;100928;;;;541399;261;24235;-76
2021/12/21 09:58:27;;;;;;;2.90;2.23;;;0.20;99.90;-0.90;100933;;;;541283;261;24168;-77
2021/12/21 10:00:55;;;;;;;1.63;1.23;;;0.20;99.90;-0.90;100933;;;;541228;261;24185;-74
2021/12/21 10:03:23;;;;;;;2.77;1.90;;;0.20;99.90;-1.00;100922;;;;541182;261;25217;-78
2021/12/21 10:05:51;;;;;;;3.40;2.27;;;0.20;99.90;-0.90;100927;;;;549138;261;24196;-74
2021/12/21 10:08:19;;;;;;;4.43;2.07;;;0.20;99.90;-0.90;100920;;;;540066;261;24209;-77
2021/12/21 10:10:50;;;;;;;1.27;1.03;;;0.30;99.90;-0.80;100933;;;;541547;261;24188;-75
2021/12/21 10:13:19;;;;;;;1.73;1.63;;;0.30;99.90;-0.80;100927;;;;541533;261;24161;-75
2021/12/21 10:15:47;;;;;;;2.63;2.30;;;0.30;99.90;-0.80;100933;;;;541444;261;24241;-75
2021/12/21 10:18:14;;;;;;;2.73;2.17;;;0.30;99.90;-0.80;100923;;;;541542;261;24185;-75
2021/12/21 10:20:45;;;;;;;2.90;1.70;;;0.30;99.90;-0.80;100925;;;;541250;261;24188;-75
2021/12/21 10:23:22;;;;;;;2.30;1.73;;;0.30;99.90;-0.80;100923;;;;541575;261;24164;-75
2021/12/21 10:25:50;;;;;;;2.27;2.03;;;0.30;99.90;-0.80;100929;;;;541577;261;24186;-77
2021/12/21 10:28:41;;;;;;;5.30;2.70;;;0.30;99.90;-0.80;100922;;;;541212;261;24165;-75
2021/12/21 10:31:12;;;;;;;2.90;1.60;;;0.30;99.90;-0.90;100925;;;;551395;256;24217;-78
2021/12/21 10:33:40;;;;;;;5.50;4.62;;;0.20;99.90;-0.90;100924;;;;538870;261;35764;-75
2021/12/21 10:36:12;;;;;;;2.67;2.47;;;0.10;99.90;-1.00;100929;;;;560536;255;24147;-77
2021/12/21 10:38:49;;;;;;;3.67;1.70;;;0.10;99.90;-1.00;100922;;;;560142;256;24144;-76
2021/12/21 10:41:15;;;;;;;6.30;2.80;;;0.00;99.90;-1.00;100929;;;;569086;248;24203;-77
2021/12/21 10:43:41;;;;;;;3.40;1.97;;;0.00;99.90;-1.10;100921;;;;539578;262;24186;-77
2021/12/21 10:46:09;;;;;;;2.13;1.83;;;0.00;99.90;-1.10;100918;;;;551957;252;24096;-76
2021/12/21 10:48:38;;;;;;;2.83;1.97;;;-0.10;99.90;-1.10;100923;;;;560667;252;24164;-75
2021/12/21 10:51:11;;;;;;;3.57;2.47;;;-0.20;99.90;-1.20;100924;;;;558182;252;24174;-76
2021/12/21 10:53:37;;;;;;;2.13;1.93;;;-0.20;99.90;-1.30;100923;;;;560734;252;24171;-75
2021/12/21 10:56:04;;;;;;;3.33;2.83;;;-0.30;99.90;-1.30;100926;;;;555514;252;35407;-76
2021/12/21 10:58:35;;;;;;;2.23;1.90;;;-0.30;99.90;-1.20;100918;;;;560376;252;24125;-77
2021/12/21 11:01:01;;;;;;;3.27;2.10;;;-0.10;99.90;-1.10;100909;;;;560216;252;24135;-77
2021/12/21 11:03:32;;;;;;;2.00;1.90;;;0.00;99.90;-1.00;100916;;;;558844;252;24118;-77
2021/12/21 11:06:23;;;;;;;3.40;3.10;;;0.00;99.90;-0.90;100910;;;;555118;252;35378;-75
2021/12/21 11:08:52;;;;;;;1.20;1.10;;;0.10;99.90;-0.90;100903;;;;559672;252;24146;-76
2021/12/21 11:11:42;;;;;;;3.63;1.30;;;0.20;99.90;-0.80;100900;;;;560027;252;24130;-76
2021/12/21 11:14:13;;;;;;;1.60;1.50;;;0.30;99.90;-0.80;100896;;;;556499;252;24108;-76
2021/12/21 11:16:42;;;;;;;1.80;1.33;;;0.30;99.90;-0.90;100891;;;;559810;252;24119;-75
2021/12/21 11:19:09;;;;;;;1.77;1.17;;;0.20;99.90;-1.00;100897;;;;559867;252;25379;-75
2021/12/21 11:21:37;;;;;;;2.77;1.40;;;0.20;99.90;-1.10;100890;;;;562687;251;24104;-75
2021/12/21 11:24:08;;;;;;;3.40;1.73;;;0.00;99.90;-1.20;100890;;;;568214;252;24197;-74
2021/12/21 11:26:37;;;;;;;1.00;0.57;;;-0.20;99.90;-1.30;100889;;;;563148;251;24094;-75
2021/12/21 11:29:08;;;;;;;2.33;1.63;;;-0.40;99.90;-1.40;100888;;;;571409;251;24130;-75
2021/12/21 11:31:36;;;;;;;1.30;1.20;;;-0.30;99.90;-1.40;100891;;;;557865;252;24160;-74
2021/12/21 11:34:04;;;;;;;1.40;1.23;;;-0.40;99.90;-1.50;100893;;;;563100;251;24145;-76
2021/12/21 11:39:19;;;;;;;6.13;4.03;;;-0.60;99.90;-1.60;100894;;;;563085;251;24155;-76
2021/12/21 11:41:47;;;;;;;3.20;2.90;;;-0.60;99.90;-1.50;100896;;;;566454;250;23996;-75
2021/12/21 11:44:35;;;;;;;5.57;3.30;;;-0.60;99.90;-1.50;100906;;;;558803;256;24209;-76
2021/12/21 11:47:03;;;;;;;5.00;3.83;;;-0.60;99.90;-1.50;100897;;;;547347;259;24217;-74
2021/12/21 11:49:43;;;;;;;5.37;4.07;;;-0.60;99.90;-1.60;100892;;;;542030;260;24275;-74
2021/12/21 11:52:22;;;;;;;4.00;3.60;;;-0.60;99.90;-1.60;100898;;;;540788;261;25229;-74
2021/12/21 11:54:50;;;;;;;4.00;3.70;;;-0.70;99.90;-1.70;100896;;;;552225;255;24154;-74
2021/12/21 11:57:18;;;;;;;4.37;3.77;;;-0.70;99.90;-1.80;100889;;;;541062;261;24168;-74
2021/12/21 11:59:50;;;;;;;5.37;4.00;;;-0.90;99.90;-1.80;100893;;;;549118;261;24222;-74
2021/12/21 12:02:33;;;;;;;5.13;4.63;;;-0.90;99.90;-1.90;100897;;;;538873;262;24167;-74
2021/12/21 12:05:00;;;;;;;3.63;3.33;;;-0.90;99.90;-1.90;100891;;;;540839;261;24209;-74
2021/12/21 12:07:25;;;;;;;3.30;3.00;;;-1.00;99.90;-2.00;100885;;;;541500;261;24175;-74
2021/12/21 12:10:08;;;;;;;4.00;3.60;;;-1.00;99.90;-1.90;100897;;;;546310;259;24252;-73